sensor_id;sensor_type;location;lat;lon;timestamp;P1;durP1;ratioP1;P2;durP2;ratioP2
12660;SDS011;39039;51.802;5.710;2023-03-11T00:01:05;13.57;;;12.17;;
12660;SDS011;39039;51.802;5.710;2023-03-11T00:03:33;16.33;;;14.80;;
12660;SDS011;39039;51.802;5.710;2023-03-11T00:06:00;15.30;;;13.77;;
12660;SDS011;39039;51.802;5.710;2023-03-11T00:08:28;14.50;;;12.97;;
12660;SDS011;39039;51.802;5.710;2023-03-11T00:10:56;15.63;;;14.10;;
12660;SDS011;39039;51.802;5.710;2023-03-11T00:13:26;14.70;;;13.23;;
12660;SDS011;39039;51.802;5.710;2023-03-11T00:15:53;15.00;;;13.77;;
12660;SDS011;39039;51.802;5.710;2023-03-11T00:18:21;22.33;;;20.27;;
12660;SDS011;39039;51.802;5.710;2023-03-11T00:20:50;18.87;;;17.27;;
12660;SDS011;39039;51.802;5.710;2023-03-11T00:23:18;16.70;;;15.23;;
12660;SDS011;39039;51.802;5.710;2023-03-11T00:25:46;14.33;;;12.93;;
12660;SDS011;39039;51.802;5.710;2023-03-11T00:28:14;13.63;;;12.57;;
12660;SDS011;39039;51.802;5.710;2023-03-11T00:30:43;16.43;;;14.80;;
12660;SDS011;39039;51.802;5.710;2023-03-11T00:33:11;31.80;;;29.73;;
12660;SDS011;39039;51.802;5.710;2023-03-11T00:35:39;45.83;;;43.13;;
12660;SDS011;39039;51.802;5.710;2023-03-11T00:38:07;38.43;;;36.10;;
12660;SDS011;39039;51.802;5.710;2023-03-11T00:40:35;21.03;;;19.60;;
12660;SDS011;39039;51.802;5.710;2023-03-11T00:43:02;15.63;;;14.13;;
12660;SDS011;39039;51.802;5.710;2023-03-11T00:45:30;15.07;;;13.70;;
12660;SDS011;39039;51.802;5.710;2023-03-11T00:47:59;13.87;;;12.70;;
12660;SDS011;39039;51.802;5.710;2023-03-11T00:50:27;14.17;;;12.93;;
12660;SDS011;39039;51.802;5.710;2023-03-11T00:52:55;14.27;;;12.83;;
12660;SDS011;39039;51.802;5.710;2023-03-11T00:55:23;17.63;;;16.00;;
12660;SDS011;39039;51.802;5.710;2023-03-11T00:57:50;15.50;;;13.87;;
12660;SDS011;39039;51.802;5.710;2023-03-11T01:00:19;20.17;;;18.73;;
12660;SDS011;39039;51.802;5.710;2023-03-11T01:02:46;21.97;;;20.13;;
12660;SDS011;39039;51.802;5.710;2023-03-11T01:05:17;19.97;;;18.53;;
12660;SDS011;39039;51.802;5.710;2023-03-11T01:07:44;20.37;;;19.00;;
12660;SDS011;39039;51.802;5.710;2023-03-11T01:10:11;21.30;;;19.33;;
12660;SDS011;39039;51.802;5.710;2023-03-11T01:12:38;24.10;;;22.20;;
12660;SDS011;39039;51.802;5.710;2023-03-11T01:15:06;20.83;;;19.20;;
12660;SDS011;39039;51.802;5.710;2023-03-11T01:17:33;28.80;;;26.83;;
12660;SDS011;39039;51.802;5.710;2023-03-11T01:20:00;22.57;;;20.93;;
12660;SDS011;39039;51.802;5.710;2023-03-11T01:22:31;47.73;;;44.93;;
12660;SDS011;39039;51.802;5.710;2023-03-11T01:24:58;31.50;;;29.17;;
12660;SDS011;39039;51.802;5.710;2023-03-11T01:27:25;31.37;;;29.27;;
12660;SDS011;39039;51.802;5.710;2023-03-11T01:29:52;57.80;;;54.70;;
12660;SDS011;39039;51.802;5.710;2023-03-11T01:32:19;47.17;;;44.60;;
12660;SDS011;39039;51.802;5.710;2023-03-11T01:34:46;37.93;;;35.70;;
12660;SDS011;39039;51.802;5.710;2023-03-11T01:37:13;29.97;;;28.07;;
12660;SDS011;39039;51.802;5.710;2023-03-11T01:39:41;23.23;;;21.43;;
12660;SDS011;39039;51.802;5.710;2023-03-11T01:42:08;18.87;;;17.33;;
12660;SDS011;39039;51.802;5.710;2023-03-11T01:44:35;26.63;;;24.20;;
12660;SDS011;39039;51.802;5.710;2023-03-11T01:49:48;28.87;;;26.97;;
12660;SDS011;39039;51.802;5.710;2023-03-11T01:52:15;24.77;;;23.33;;
12660;SDS011;39039;51.802;5.710;2023-03-11T01:54:44;23.50;;;21.97;;
12660;SDS011;39039;51.802;5.710;2023-03-11T01:57:12;23.17;;;21.43;;
12660;SDS011;39039;51.802;5.710;2023-03-11T01:59:39;19.43;;;18.13;;
12660;SDS011;39039;51.802;5.710;2023-03-11T02:02:08;19.10;;;17.80;;
12660;SDS011;39039;51.802;5.710;2023-03-11T02:04:37;18.67;;;17.57;;
12660;SDS011;39039;51.802;5.710;2023-03-11T02:07:07;15.90;;;14.40;;
12660;SDS011;39039;51.802;5.710;2023-03-11T02:09:35;13.57;;;12.37;;
12660;SDS011;39039;51.802;5.710;2023-03-11T02:12:03;15.27;;;14.00;;
12660;SDS011;39039;51.802;5.710;2023-03-11T02:14:31;14.53;;;13.40;;
12660;SDS011;39039;51.802;5.710;2023-03-11T02:16:59;16.23;;;14.70;;
12660;SDS011;39039;51.802;5.710;2023-03-11T02:19:28;19.73;;;18.23;;
12660;SDS011;39039;51.802;5.710;2023-03-11T02:21:56;19.83;;;18.47;;
12660;SDS011;39039;51.802;5.710;2023-03-11T02:24:25;21.60;;;20.20;;
12660;SDS011;39039;51.802;5.710;2023-03-11T02:26:56;23.00;;;21.43;;
12660;SDS011;39039;51.802;5.710;2023-03-11T02:29:25;31.10;;;29.00;;
12660;SDS011;39039;51.802;5.710;2023-03-11T02:31:53;27.30;;;25.40;;
12660;SDS011;39039;51.802;5.710;2023-03-11T02:34:22;30.10;;;27.80;;
12660;SDS011;39039;51.802;5.710;2023-03-11T02:36:50;34.70;;;32.50;;
12660;SDS011;39039;51.802;5.710;2023-03-11T02:39:27;29.30;;;27.43;;
12660;SDS011;39039;51.802;5.710;2023-03-11T02:41:54;27.30;;;25.50;;
12660;SDS011;39039;51.802;5.710;2023-03-11T02:44:23;28.17;;;26.17;;
12660;SDS011;39039;51.802;5.710;2023-03-11T02:46:50;28.93;;;27.00;;
12660;SDS011;39039;51.802;5.710;2023-03-11T02:49:18;26.77;;;25.17;;
12660;SDS011;39039;51.802;5.710;2023-03-11T02:51:46;26.00;;;24.43;;
12660;SDS011;39039;51.802;5.710;2023-03-11T02:54:13;30.87;;;28.77;;
12660;SDS011;39039;51.802;5.710;2023-03-11T02:56:40;29.90;;;28.27;;
12660;SDS011;39039;51.802;5.710;2023-03-11T02:59:07;27.17;;;25.13;;
12660;SDS011;39039;51.802;5.710;2023-03-11T03:01:35;27.87;;;26.20;;
12660;SDS011;39039;51.802;5.710;2023-03-11T03:04:02;30.70;;;28.53;;
12660;SDS011;39039;51.802;5.710;2023-03-11T03:06:29;30.43;;;28.13;;
12660;SDS011;39039;51.802;5.710;2023-03-11T03:08:56;27.20;;;25.33;;
12660;SDS011;39039;51.802;5.710;2023-03-11T03:11:24;24.73;;;23.13;;
12660;SDS011;39039;51.802;5.710;2023-03-11T03:13:51;25.23;;;23.33;;
12660;SDS011;39039;51.802;5.710;2023-03-11T03:16:18;23.17;;;21.77;;
12660;SDS011;39039;51.802;5.710;2023-03-11T03:18:46;24.80;;;22.90;;
12660;SDS011;39039;51.802;5.710;2023-03-11T03:21:13;28.00;;;25.97;;
12660;SDS011;39039;51.802;5.710;2023-03-11T03:23:40;22.03;;;20.60;;
12660;SDS011;39039;51.802;5.710;2023-03-11T03:26:10;25.67;;;23.40;;
12660;SDS011;39039;51.802;5.710;2023-03-11T03:28:37;26.20;;;24.63;;
12660;SDS011;39039;51.802;5.710;2023-03-11T03:31:04;26.23;;;24.50;;
12660;SDS011;39039;51.802;5.710;2023-03-11T03:33:32;23.00;;;21.07;;
12660;SDS011;39039;51.802;5.710;2023-03-11T03:36:04;23.50;;;21.80;;
12660;SDS011;39039;51.802;5.710;2023-03-11T03:38:31;19.33;;;17.73;;
12660;SDS011;39039;51.802;5.710;2023-03-11T03:40:58;22.10;;;20.73;;
12660;SDS011;39039;51.802;5.710;2023-03-11T03:43:25;27.70;;;25.80;;
12660;SDS011;39039;51.802;5.710;2023-03-11T03:45:56;25.03;;;23.40;;
12660;SDS011;39039;51.802;5.710;2023-03-11T03:48:23;17.63;;;16.47;;
12660;SDS011;39039;51.802;5.710;2023-03-11T03:50:50;20.10;;;18.10;;
12660;SDS011;39039;51.802;5.710;2023-03-11T03:53:18;18.53;;;16.87;;
12660;SDS011;39039;51.802;5.710;2023-03-11T03:55:45;21.23;;;19.93;;
12660;SDS011;39039;51.802;5.710;2023-03-11T03:58:13;20.60;;;19.20;;
12660;SDS011;39039;51.802;5.710;2023-03-11T04:00:41;17.30;;;16.00;;
12660;SDS011;39039;51.802;5.710;2023-03-11T04:03:08;18.97;;;17.67;;
12660;SDS011;39039;51.802;5.710;2023-03-11T04:05:35;22.63;;;21.13;;
12660;SDS011;39039;51.802;5.710;2023-03-11T04:08:02;27.07;;;25.07;;
12660;SDS011;39039;51.802;5.710;2023-03-11T04:10:30;37.33;;;34.93;;
12660;SDS011;39039;51.802;5.710;2023-03-11T04:12:57;28.40;;;26.27;;
12660;SDS011;39039;51.802;5.710;2023-03-11T04:15:24;13.90;;;12.70;;
12660;SDS011;39039;51.802;5.710;2023-03-11T04:17:51;12.77;;;11.63;;
12660;SDS011;39039;51.802;5.710;2023-03-11T04:20:18;13.33;;;12.37;;
12660;SDS011;39039;51.802;5.710;2023-03-11T04:22:46;14.23;;;12.97;;
12660;SDS011;39039;51.802;5.710;2023-03-11T04:25:13;14.40;;;12.93;;
12660;SDS011;39039;51.802;5.710;2023-03-11T04:27:41;14.23;;;12.83;;
12660;SDS011;39039;51.802;5.710;2023-03-11T04:30:10;13.70;;;12.60;;
12660;SDS011;39039;51.802;5.710;2023-03-11T04:32:37;13.30;;;12.20;;
12660;SDS011;39039;51.802;5.710;2023-03-11T04:35:05;15.67;;;13.97;;
12660;SDS011;39039;51.802;5.710;2023-03-11T04:37:32;14.53;;;13.00;;
12660;SDS011;39039;51.802;5.710;2023-03-11T04:39:59;14.03;;;12.77;;
12660;SDS011;39039;51.802;5.710;2023-03-11T04:42:26;13.93;;;12.47;;
12660;SDS011;39039;51.802;5.710;2023-03-11T04:44:54;13.87;;;12.67;;
12660;SDS011;39039;51.802;5.710;2023-03-11T04:47:21;16.73;;;15.20;;
12660;SDS011;39039;51.802;5.710;2023-03-11T04:49:48;14.27;;;12.67;;
12660;SDS011;39039;51.802;5.710;2023-03-11T04:52:15;13.57;;;12.27;;
12660;SDS011;39039;51.802;5.710;2023-03-11T04:54:42;14.87;;;13.40;;
12660;SDS011;39039;51.802;5.710;2023-03-11T04:57:09;12.87;;;11.87;;
12660;SDS011;39039;51.802;5.710;2023-03-11T04:59:36;15.87;;;14.30;;
12660;SDS011;39039;51.802;5.710;2023-03-11T05:02:05;15.40;;;13.77;;
12660;SDS011;39039;51.802;5.710;2023-03-11T05:04:32;14.93;;;12.90;;
12660;SDS011;39039;51.802;5.710;2023-03-11T05:06:59;13.27;;;12.13;;
12660;SDS011;39039;51.802;5.710;2023-03-11T05:09:26;14.00;;;12.93;;
12660;SDS011;39039;51.802;5.710;2023-03-11T05:11:53;13.23;;;12.13;;
12660;SDS011;39039;51.802;5.710;2023-03-11T05:14:20;13.87;;;12.63;;
12660;SDS011;39039;51.802;5.710;2023-03-11T05:16:47;12.77;;;11.80;;
12660;SDS011;39039;51.802;5.710;2023-03-11T05:19:16;13.93;;;12.73;;
12660;SDS011;39039;51.802;5.710;2023-03-11T05:21:59;14.80;;;13.60;;
12660;SDS011;39039;51.802;5.710;2023-03-11T05:24:26;14.77;;;13.63;;
12660;SDS011;39039;51.802;5.710;2023-03-11T05:26:53;17.20;;;15.67;;
12660;SDS011;39039;51.802;5.710;2023-03-11T05:29:20;24.10;;;21.90;;
12660;SDS011;39039;51.802;5.710;2023-03-11T05:31:47;32.53;;;30.43;;
12660;SDS011;39039;51.802;5.710;2023-03-11T05:34:16;46.13;;;43.37;;
12660;SDS011;39039;51.802;5.710;2023-03-11T05:36:43;52.27;;;49.03;;
12660;SDS011;39039;51.802;5.710;2023-03-11T05:39:10;32.47;;;30.27;;
12660;SDS011;39039;51.802;5.710;2023-03-11T05:41:38;28.30;;;26.63;;
12660;SDS011;39039;51.802;5.710;2023-03-11T05:44:05;42.20;;;39.57;;
12660;SDS011;39039;51.802;5.710;2023-03-11T05:46:32;40.03;;;37.73;;
12660;SDS011;39039;51.802;5.710;2023-03-11T05:48:59;23.20;;;21.73;;
12660;SDS011;39039;51.802;5.710;2023-03-11T05:51:27;37.23;;;35.20;;
12660;SDS011;39039;51.802;5.710;2023-03-11T05:53:54;27.47;;;25.27;;
12660;SDS011;39039;51.802;5.710;2023-03-11T05:56:22;17.23;;;15.47;;
12660;SDS011;39039;51.802;5.710;2023-03-11T05:58:49;13.37;;;12.30;;
12660;SDS011;39039;51.802;5.710;2023-03-11T06:01:17;13.43;;;12.43;;
12660;SDS011;39039;51.802;5.710;2023-03-11T06:03:44;17.97;;;13.63;;
12660;SDS011;39039;51.802;5.710;2023-03-11T06:06:12;14.23;;;12.97;;
12660;SDS011;39039;51.802;5.710;2023-03-11T06:08:40;16.83;;;15.33;;
12660;SDS011;39039;51.802;5.710;2023-03-11T06:11:10;16.67;;;15.37;;
12660;SDS011;39039;51.802;5.710;2023-03-11T06:13:37;14.93;;;13.73;;
12660;SDS011;39039;51.802;5.710;2023-03-11T06:16:04;16.53;;;15.23;;
12660;SDS011;39039;51.802;5.710;2023-03-11T06:18:31;13.83;;;12.83;;
12660;SDS011;39039;51.802;5.710;2023-03-11T06:20:59;14.00;;;12.90;;
12660;SDS011;39039;51.802;5.710;2023-03-11T06:23:26;13.27;;;11.93;;
12660;SDS011;39039;51.802;5.710;2023-03-11T06:25:55;14.33;;;12.67;;
12660;SDS011;39039;51.802;5.710;2023-03-11T06:28:22;13.53;;;12.50;;
12660;SDS011;39039;51.802;5.710;2023-03-11T06:30:49;13.23;;;11.80;;
12660;SDS011;39039;51.802;5.710;2023-03-11T06:33:16;12.60;;;11.70;;
12660;SDS011;39039;51.802;5.710;2023-03-11T06:35:43;13.23;;;12.27;;
12660;SDS011;39039;51.802;5.710;2023-03-11T06:38:11;13.70;;;11.53;;
12660;SDS011;39039;51.802;5.710;2023-03-11T06:40:38;13.20;;;12.10;;
12660;SDS011;39039;51.802;5.710;2023-03-11T06:43:07;12.80;;;11.80;;
12660;SDS011;39039;51.802;5.710;2023-03-11T06:45:34;14.40;;;13.10;;
12660;SDS011;39039;51.802;5.710;2023-03-11T06:48:01;13.10;;;12.00;;
12660;SDS011;39039;51.802;5.710;2023-03-11T06:50:28;12.70;;;11.50;;
12660;SDS011;39039;51.802;5.710;2023-03-11T06:52:55;12.33;;;11.07;;
12660;SDS011;39039;51.802;5.710;2023-03-11T06:55:22;14.37;;;12.27;;
12660;SDS011;39039;51.802;5.710;2023-03-11T06:57:49;13.17;;;11.90;;
12660;SDS011;39039;51.802;5.710;2023-03-11T07:00:18;12.33;;;11.13;;
12660;SDS011;39039;51.802;5.710;2023-03-11T07:02:45;12.53;;;11.53;;
12660;SDS011;39039;51.802;5.710;2023-03-11T07:05:12;19.03;;;17.37;;
12660;SDS011;39039;51.802;5.710;2023-03-11T07:07:39;37.30;;;34.80;;
12660;SDS011;39039;51.802;5.710;2023-03-11T07:10:06;35.27;;;33.27;;
12660;SDS011;39039;51.802;5.710;2023-03-11T07:12:33;32.93;;;30.77;;
12660;SDS011;39039;51.802;5.710;2023-03-11T07:15:00;15.90;;;14.53;;
12660;SDS011;39039;51.802;5.710;2023-03-11T07:17:28;14.77;;;13.37;;
12660;SDS011;39039;51.802;5.710;2023-03-11T07:19:55;12.53;;;11.60;;
12660;SDS011;39039;51.802;5.710;2023-03-11T07:22:22;15.10;;;13.80;;
12660;SDS011;39039;51.802;5.710;2023-03-11T07:24:49;12.70;;;11.47;;
12660;SDS011;39039;51.802;5.710;2023-03-11T07:27:16;13.60;;;12.53;;
12660;SDS011;39039;51.802;5.710;2023-03-11T07:29:43;13.63;;;12.63;;
12660;SDS011;39039;51.802;5.710;2023-03-11T07:32:10;14.53;;;13.43;;
12660;SDS011;39039;51.802;5.710;2023-03-11T07:34:39;13.47;;;12.30;;
12660;SDS011;39039;51.802;5.710;2023-03-11T07:37:07;12.53;;;11.63;;
12660;SDS011;39039;51.802;5.710;2023-03-11T07:39:34;14.07;;;12.83;;
12660;SDS011;39039;51.802;5.710;2023-03-11T07:42:02;14.87;;;13.37;;
12660;SDS011;39039;51.802;5.710;2023-03-11T07:44:29;13.70;;;12.07;;
12660;SDS011;39039;51.802;5.710;2023-03-11T07:46:56;13.23;;;12.23;;
12660;SDS011;39039;51.802;5.710;2023-03-11T07:49:23;16.10;;;14.73;;
12660;SDS011;39039;51.802;5.710;2023-03-11T07:51:52;14.63;;;13.07;;
12660;SDS011;39039;51.802;5.710;2023-03-11T07:54:20;18.13;;;16.67;;
12660;SDS011;39039;51.802;5.710;2023-03-11T07:56:47;30.97;;;29.07;;
12660;SDS011;39039;51.802;5.710;2023-03-11T07:59:14;36.57;;;34.43;;
12660;SDS011;39039;51.802;5.710;2023-03-11T08:01:41;34.47;;;32.07;;
12660;SDS011;39039;51.802;5.710;2023-03-11T08:04:11;38.67;;;36.40;;
12660;SDS011;39039;51.802;5.710;2023-03-11T08:06:41;39.60;;;37.30;;
12660;SDS011;39039;51.802;5.710;2023-03-11T08:09:10;39.00;;;36.90;;
12660;SDS011;39039;51.802;5.710;2023-03-11T08:11:37;29.33;;;27.57;;
12660;SDS011;39039;51.802;5.710;2023-03-11T08:14:05;19.73;;;18.53;;
12660;SDS011;39039;51.802;5.710;2023-03-11T08:16:32;14.57;;;13.03;;
12660;SDS011;39039;51.802;5.710;2023-03-11T08:18:59;14.37;;;12.93;;
12660;SDS011;39039;51.802;5.710;2023-03-11T08:21:27;14.93;;;13.80;;
12660;SDS011;39039;51.802;5.710;2023-03-11T08:23:56;15.67;;;14.53;;
12660;SDS011;39039;51.802;5.710;2023-03-11T08:26:25;81.53;;;77.37;;
12660;SDS011;39039;51.802;5.710;2023-03-11T08:28:51;47.23;;;44.33;;
12660;SDS011;39039;51.802;5.710;2023-03-11T08:31:19;70.37;;;66.20;;
12660;SDS011;39039;51.802;5.710;2023-03-11T08:33:48;33.47;;;31.67;;
12660;SDS011;39039;51.802;5.710;2023-03-11T08:36:15;26.30;;;24.57;;
12660;SDS011;39039;51.802;5.710;2023-03-11T08:38:42;26.70;;;25.00;;
12660;SDS011;39039;51.802;5.710;2023-03-11T08:41:10;25.43;;;23.53;;
12660;SDS011;39039;51.802;5.710;2023-03-11T08:43:38;27.20;;;25.43;;
12660;SDS011;39039;51.802;5.710;2023-03-11T08:46:06;23.90;;;22.33;;
12660;SDS011;39039;51.802;5.710;2023-03-11T08:48:33;17.83;;;16.73;;
12660;SDS011;39039;51.802;5.710;2023-03-11T08:51:00;15.43;;;14.27;;
12660;SDS011;39039;51.802;5.710;2023-03-11T08:53:28;22.93;;;21.17;;
12660;SDS011;39039;51.802;5.710;2023-03-11T08:55:55;15.33;;;13.87;;
12660;SDS011;39039;51.802;5.710;2023-03-11T08:58:22;15.00;;;13.60;;
12660;SDS011;39039;51.802;5.710;2023-03-11T09:00:50;13.57;;;12.47;;
12660;SDS011;39039;51.802;5.710;2023-03-11T09:03:17;15.43;;;14.13;;
12660;SDS011;39039;51.802;5.710;2023-03-11T09:05:44;15.37;;;14.30;;
12660;SDS011;39039;51.802;5.710;2023-03-11T09:08:11;12.90;;;11.97;;
12660;SDS011;39039;51.802;5.710;2023-03-11T09:10:38;13.10;;;12.20;;
12660;SDS011;39039;51.802;5.710;2023-03-11T09:13:05;12.23;;;11.10;;
12660;SDS011;39039;51.802;5.710;2023-03-11T09:15:32;16.37;;;15.07;;
12660;SDS011;39039;51.802;5.710;2023-03-11T09:18:01;12.73;;;11.33;;
12660;SDS011;39039;51.802;5.710;2023-03-11T09:20:28;13.10;;;12.20;;
12660;SDS011;39039;51.802;5.710;2023-03-11T09:22:55;12.50;;;11.60;;
12660;SDS011;39039;51.802;5.710;2023-03-11T09:25:22;14.90;;;14.00;;
12660;SDS011;39039;51.802;5.710;2023-03-11T09:27:49;13.43;;;12.43;;
12660;SDS011;39039;51.802;5.710;2023-03-11T09:30:17;11.80;;;11.10;;
12660;SDS011;39039;51.802;5.710;2023-03-11T09:32:44;12.63;;;11.60;;
12660;SDS011;39039;51.802;5.710;2023-03-11T09:35:12;12.30;;;11.33;;
12660;SDS011;39039;51.802;5.710;2023-03-11T09:37:39;16.20;;;15.03;;
12660;SDS011;39039;51.802;5.710;2023-03-11T09:40:06;28.83;;;27.23;;
12660;SDS011;39039;51.802;5.710;2023-03-11T09:42:36;40.23;;;38.23;;
12660;SDS011;39039;51.802;5.710;2023-03-11T09:45:05;13.60;;;12.73;;
12660;SDS011;39039;51.802;5.710;2023-03-11T09:47:41;17.43;;;16.20;;
12660;SDS011;39039;51.802;5.710;2023-03-11T09:50:15;12.83;;;11.93;;
12660;SDS011;39039;51.802;5.710;2023-03-11T09:52:45;38.70;;;36.53;;
12660;SDS011;39039;51.802;5.710;2023-03-11T09:55:29;21.63;;;20.43;;
12660;SDS011;39039;51.802;5.710;2023-03-11T09:58:02;13.30;;;12.00;;
12660;SDS011;39039;51.802;5.710;2023-03-11T10:00:30;53.53;;;50.53;;
12660;SDS011;39039;51.802;5.710;2023-03-11T10:02:57;33.23;;;31.47;;
12660;SDS011;39039;51.802;5.710;2023-03-11T10:05:27;33.60;;;31.60;;
12660;SDS011;39039;51.802;5.710;2023-03-11T10:07:57;33.97;;;32.17;;
12660;SDS011;39039;51.802;5.710;2023-03-11T10:10:26;18.00;;;16.70;;
12660;SDS011;39039;51.802;5.710;2023-03-11T10:12:58;10.90;;;10.10;;
12660;SDS011;39039;51.802;5.710;2023-03-11T10:15:30;12.20;;;11.33;;
12660;SDS011;39039;51.802;5.710;2023-03-11T10:18:04;20.00;;;18.83;;
12660;SDS011;39039;51.802;5.710;2023-03-11T10:20:37;13.50;;;12.60;;
12660;SDS011;39039;51.802;5.710;2023-03-11T10:23:08;13.00;;;12.13;;
12660;SDS011;39039;51.802;5.710;2023-03-11T10:25:40;12.60;;;11.77;;
12660;SDS011;39039;51.802;5.710;2023-03-11T10:28:10;12.53;;;11.63;;
12660;SDS011;39039;51.802;5.710;2023-03-11T10:30:39;12.67;;;11.93;;
12660;SDS011;39039;51.802;5.710;2023-03-11T10:33:11;12.40;;;11.30;;
12660;SDS011;39039;51.802;5.710;2023-03-11T10:35:43;13.60;;;12.53;;
12660;SDS011;39039;51.802;5.710;2023-03-11T10:38:12;14.17;;;12.93;;
12660;SDS011;39039;51.802;5.710;2023-03-11T10:40:41;15.27;;;14.27;;
12660;SDS011;39039;51.802;5.710;2023-03-11T10:43:10;12.43;;;11.47;;
12660;SDS011;39039;51.802;5.710;2023-03-11T10:45:39;11.83;;;11.10;;
12660;SDS011;39039;51.802;5.710;2023-03-11T10:48:09;11.83;;;10.93;;
12660;SDS011;39039;51.802;5.710;2023-03-11T10:50:36;12.60;;;11.47;;
12660;SDS011;39039;51.802;5.710;2023-03-11T10:53:12;14.20;;;12.93;;
12660;SDS011;39039;51.802;5.710;2023-03-11T10:55:44;13.90;;;12.67;;
12660;SDS011;39039;51.802;5.710;2023-03-11T10:58:12;12.80;;;11.63;;
12660;SDS011;39039;51.802;5.710;2023-03-11T11:00:39;16.43;;;15.30;;
12660;SDS011;39039;51.802;5.710;2023-03-11T11:03:11;14.37;;;13.30;;
12660;SDS011;39039;51.802;5.710;2023-03-11T11:05:41;14.30;;;13.40;;
12660;SDS011;39039;51.802;5.710;2023-03-11T11:08:11;13.00;;;12.13;;
12660;SDS011;39039;51.802;5.710;2023-03-11T11:10:47;12.17;;;11.27;;
12660;SDS011;39039;51.802;5.710;2023-03-11T11:13:16;13.70;;;12.43;;
12660;SDS011;39039;51.802;5.710;2023-03-11T11:15:54;12.30;;;11.50;;
12660;SDS011;39039;51.802;5.710;2023-03-11T11:18:23;12.97;;;11.97;;
12660;SDS011;39039;51.802;5.710;2023-03-11T11:20:53;13.40;;;12.47;;
12660;SDS011;39039;51.802;5.710;2023-03-11T11:23:25;12.47;;;11.70;;
12660;SDS011;39039;51.802;5.710;2023-03-11T11:25:57;14.07;;;12.97;;
12660;SDS011;39039;51.802;5.710;2023-03-11T11:28:24;13.90;;;12.87;;
12660;SDS011;39039;51.802;5.710;2023-03-11T11:30:52;13.40;;;12.30;;
12660;SDS011;39039;51.802;5.710;2023-03-11T11:33:21;13.00;;;12.10;;
12660;SDS011;39039;51.802;5.710;2023-03-11T11:35:49;12.93;;;11.80;;
12660;SDS011;39039;51.802;5.710;2023-03-11T11:38:18;13.43;;;12.53;;
12660;SDS011;39039;51.802;5.710;2023-03-11T11:40:49;12.93;;;12.13;;
12660;SDS011;39039;51.802;5.710;2023-03-11T11:43:17;12.67;;;11.87;;
12660;SDS011;39039;51.802;5.710;2023-03-11T11:45:45;12.93;;;12.13;;
12660;SDS011;39039;51.802;5.710;2023-03-11T11:48:18;14.37;;;13.23;;
12660;SDS011;39039;51.802;5.710;2023-03-11T11:50:50;15.03;;;13.93;;
12660;SDS011;39039;51.802;5.710;2023-03-11T11:53:20;12.90;;;11.67;;
12660;SDS011;39039;51.802;5.710;2023-03-11T11:55:51;13.37;;;12.50;;
12660;SDS011;39039;51.802;5.710;2023-03-11T11:58:19;13.87;;;12.97;;
12660;SDS011;39039;51.802;5.710;2023-03-11T12:00:49;13.97;;;13.03;;
12660;SDS011;39039;51.802;5.710;2023-03-11T12:03:31;13.93;;;13.03;;
12660;SDS011;39039;51.802;5.710;2023-03-11T12:06:03;13.17;;;12.10;;
12660;SDS011;39039;51.802;5.710;2023-03-11T12:08:34;15.60;;;14.67;;
12660;SDS011;39039;51.802;5.710;2023-03-11T12:11:04;14.30;;;13.30;;
12660;SDS011;39039;51.802;5.710;2023-03-11T12:13:49;14.00;;;12.90;;
12660;SDS011;39039;51.802;5.710;2023-03-11T12:16:26;12.87;;;11.97;;
12660;SDS011;39039;51.802;5.710;2023-03-11T12:18:58;12.77;;;11.87;;
12660;SDS011;39039;51.802;5.710;2023-03-11T12:21:32;16.83;;;15.80;;
12660;SDS011;39039;51.802;5.710;2023-03-11T12:24:04;14.00;;;13.10;;
12660;SDS011;39039;51.802;5.710;2023-03-11T12:26:41;14.07;;;13.23;;
12660;SDS011;39039;51.802;5.710;2023-03-11T12:29:12;18.33;;;17.13;;
12660;SDS011;39039;51.802;5.710;2023-03-11T12:31:47;14.53;;;13.53;;
12660;SDS011;39039;51.802;5.710;2023-03-11T12:34:14;13.50;;;12.53;;
12660;SDS011;39039;51.802;5.710;2023-03-11T12:36:46;12.50;;;11.73;;
12660;SDS011;39039;51.802;5.710;2023-03-11T12:39:20;11.63;;;10.80;;
12660;SDS011;39039;51.802;5.710;2023-03-11T12:41:50;11.27;;;10.57;;
12660;SDS011;39039;51.802;5.710;2023-03-11T12:44:37;11.97;;;11.27;;
12660;SDS011;39039;51.802;5.710;2023-03-11T12:47:15;11.77;;;10.80;;
12660;SDS011;39039;51.802;5.710;2023-03-11T12:49:43;11.43;;;10.53;;
12660;SDS011;39039;51.802;5.710;2023-03-11T12:52:27;12.17;;;11.17;;
12660;SDS011;39039;51.802;5.710;2023-03-11T12:57:41;13.17;;;12.13;;
12660;SDS011;39039;51.802;5.710;2023-03-11T13:00:17;11.53;;;10.63;;
12660;SDS011;39039;51.802;5.710;2023-03-11T13:02:55;11.63;;;10.87;;
12660;SDS011;39039;51.802;5.710;2023-03-11T13:05:28;12.37;;;11.33;;
12660;SDS011;39039;51.802;5.710;2023-03-11T13:07:57;11.03;;;10.30;;
12660;SDS011;39039;51.802;5.710;2023-03-11T13:10:38;13.20;;;12.40;;
12660;SDS011;39039;51.802;5.710;2023-03-11T13:15:53;11.93;;;11.03;;
12660;SDS011;39039;51.802;5.710;2023-03-11T13:18:21;12.00;;;10.90;;
12660;SDS011;39039;51.802;5.710;2023-03-11T13:20:53;12.87;;;11.97;;
12660;SDS011;39039;51.802;5.710;2023-03-11T13:23:25;14.87;;;13.63;;
12660;SDS011;39039;51.802;5.710;2023-03-11T13:31:51;12.47;;;11.60;;
12660;SDS011;39039;51.802;5.710;2023-03-11T13:34:23;16.87;;;15.77;;
12660;SDS011;39039;51.802;5.710;2023-03-11T13:36:58;11.97;;;11.27;;
12660;SDS011;39039;51.802;5.710;2023-03-11T13:39:31;13.13;;;12.13;;
12660;SDS011;39039;51.802;5.710;2023-03-11T13:42:13;12.40;;;11.70;;
12660;SDS011;39039;51.802;5.710;2023-03-11T13:44:41;12.77;;;11.97;;
12660;SDS011;39039;51.802;5.710;2023-03-11T13:47:12;12.73;;;11.93;;
12660;SDS011;39039;51.802;5.710;2023-03-11T13:49:41;17.60;;;16.57;;
12660;SDS011;39039;51.802;5.710;2023-03-11T13:52:11;22.87;;;21.37;;
12660;SDS011;39039;51.802;5.710;2023-03-11T13:54:44;39.63;;;37.53;;
12660;SDS011;39039;51.802;5.710;2023-03-11T13:57:20;36.70;;;34.60;;
12660;SDS011;39039;51.802;5.710;2023-03-11T13:59:52;23.10;;;21.23;;
12660;SDS011;39039;51.802;5.710;2023-03-11T14:02:21;34.53;;;32.60;;
12660;SDS011;39039;51.802;5.710;2023-03-11T14:04:49;25.37;;;23.80;;
12660;SDS011;39039;51.802;5.710;2023-03-11T14:07:19;31.63;;;29.97;;
12660;SDS011;39039;51.802;5.710;2023-03-11T14:09:49;44.00;;;41.73;;
12660;SDS011;39039;51.802;5.710;2023-03-11T14:12:16;32.07;;;30.43;;
12660;SDS011;39039;51.802;5.710;2023-03-11T14:14:44;14.23;;;13.43;;
12660;SDS011;39039;51.802;5.710;2023-03-11T14:17:14;14.13;;;13.13;;
12660;SDS011;39039;51.802;5.710;2023-03-11T14:19:43;14.97;;;14.07;;
12660;SDS011;39039;51.802;5.710;2023-03-11T14:22:12;17.30;;;16.37;;
12660;SDS011;39039;51.802;5.710;2023-03-11T14:24:45;27.03;;;25.57;;
12660;SDS011;39039;51.802;5.710;2023-03-11T14:27:13;43.70;;;41.20;;
12660;SDS011;39039;51.802;5.710;2023-03-11T14:29:41;14.30;;;13.40;;
12660;SDS011;39039;51.802;5.710;2023-03-11T14:32:15;25.17;;;23.63;;
12660;SDS011;39039;51.802;5.710;2023-03-11T14:34:44;27.53;;;25.83;;
12660;SDS011;39039;51.802;5.710;2023-03-11T14:37:19;22.07;;;20.77;;
12660;SDS011;39039;51.802;5.710;2023-03-11T14:39:49;23.60;;;22.23;;
12660;SDS011;39039;51.802;5.710;2023-03-11T14:42:17;15.47;;;14.57;;
12660;SDS011;39039;51.802;5.710;2023-03-11T14:44:46;29.20;;;27.67;;